createdAt,value
2023-04-15T00:01:09.358Z,76
2023-04-15T00:21:11.128Z,77
2023-04-15T00:41:07.266Z,78
2023-04-15T01:01:08.676Z,78
2023-04-15T01:21:07.355Z,77
2023-04-15T01:41:06.583Z,77
2023-04-15T02:01:10.419Z,79
2023-04-15T02:21:09.959Z,80
2023-04-15T02:40:48.487Z,80
2023-04-15T03:00:49.517Z,82
2023-04-15T03:20:47.762Z,85
2023-04-15T03:40:47.578Z,85
2023-04-15T04:01:04.631Z,86
2023-04-15T04:20:48.139Z,88
2023-04-15T04:40:46.668Z,88
2023-04-15T05:01:17.037Z,87
2023-04-15T05:20:48.431Z,88
2023-04-15T05:41:08.313Z,87
2023-04-15T06:01:13.104Z,88
2023-04-15T06:21:14.448Z,87
2023-04-15T06:41:07.734Z,88
2023-04-15T07:01:13.847Z,87
2023-04-15T07:21:13.216Z,88
2023-04-15T07:41:13.439Z,87
2023-04-15T08:01:15.793Z,90
2023-04-15T08:21:07.371Z,90
2023-04-15T08:41:08.082Z,87
2023-04-15T09:01:07.728Z,90
2023-04-15T09:21:14.478Z,90
2023-04-15T09:41:08.500Z,90
2023-04-15T10:01:08.519Z,91
2023-04-15T10:21:07.863Z,90
2023-04-15T10:41:21.718Z,90
2023-04-15T11:01:05.469Z,91
2023-04-15T11:21:12.696Z,91
2023-04-15T11:41:15.381Z,91
2023-04-15T12:01:08.574Z,91
2023-04-15T12:21:11.827Z,91
2023-04-15T12:41:08.949Z,92
2023-04-15T13:01:08.703Z,91
2023-04-15T13:21:09.108Z,91
2023-04-15T13:41:08.738Z,92
2023-04-15T14:01:13.229Z,91
2023-04-15T14:21:12.539Z,92
2023-04-15T14:41:08.540Z,92
2023-04-15T15:01:14.936Z,92
2023-04-15T15:21:08.690Z,92
2023-04-15T15:41:12.377Z,93
2023-04-15T16:01:04.342Z,93
2023-04-15T16:21:07.343Z,92
2023-04-15T16:41:08.058Z,92
2023-04-15T17:01:18.620Z,89
2023-04-15T17:21:07.965Z,90
2023-04-15T17:41:07.204Z,88
2023-04-15T18:01:08.231Z,87
2023-04-15T18:20:54.623Z,88
2023-04-15T18:40:47.575Z,87
2023-04-15T19:00:46.759Z,87
2023-04-15T19:20:51.664Z,88
2023-04-15T19:40:46.597Z,89
2023-04-15T20:00:47.103Z,89
2023-04-15T20:20:47.035Z,89
2023-04-15T20:40:46.875Z,89
2023-04-15T21:00:46.816Z,90
2023-04-15T21:20:49.892Z,90
2023-04-15T21:40:46.502Z,90
2023-04-15T22:00:47.132Z,91
2023-04-15T22:20:50.433Z,90
2023-04-15T22:40:47.462Z,90
2023-04-15T23:00:47.565Z,91
2023-04-15T23:21:08.395Z,90
2023-04-15T23:41:16.193Z,91
